Time;durP1;ratioP1;P1;durP2;ratioP2;P2;SDS_P1;SDS_P2;PMS_P1;PMS_P2;Temp;Humidity;BMP_temperature;BMP_pressure;BME280_temperature;BME280_humidity;BME280_pressure;Samples;Min_cycle;Max_cycle;Signal;HPM_P1;HPM_P2
2023/06/08 00:02:03;;;;;;;547.47;523.70;;;15.80;99.90;;;;;;5983177;24;20472;-65
2023/06/08 00:04:33;;;;;;;554.23;530.27;;;15.80;99.90;;;;;;5983248;24;20502;-64
2023/06/08 00:07:00;;;;;;;535.20;512.57;;;15.70;99.90;;;;;;5982724;24;20447;-64
2023/06/08 00:09:26;;;;;;;582.37;557.17;;;15.70;99.90;;;;;;5983262;24;20428;-64
2023/06/08 00:11:55;;;;;;;632.63;603.13;;;15.60;99.90;;;;;;5983117;24;20754;-64
2023/06/08 00:14:22;;;;;;;676.60;643.40;;;15.50;99.90;;;;;;5982820;24;20479;-64
2023/06/08 00:16:49;;;;;;;696.33;661.73;;;15.50;99.90;;;;;;5982812;24;20927;-64
2023/06/08 00:19:16;;;;;;;730.73;692.67;;;15.40;99.90;;;;;;5982761;24;20420;-64
2023/06/08 00:21:44;;;;;;;752.67;713.63;;;15.40;99.90;;;;;;5982767;24;20475;-64
2023/06/08 00:24:11;;;;;;;751.20;711.80;;;15.40;99.90;;;;;;5982117;24;20951;-64
2023/06/08 00:26:38;;;;;;;748.37;709.47;;;15.30;99.90;;;;;;5982835;24;20423;-64
2023/06/08 00:29:05;;;;;;;770.43;731.07;;;15.30;99.90;;;;;;5982702;24;20419;-64
2023/06/08 00:31:32;;;;;;;743.40;706.67;;;15.30;99.90;;;;;;5982601;24;20756;-64
2023/06/08 00:33:58;;;;;;;753.57;715.90;;;15.20;99.90;;;;;;5982300;24;20443;-64
2023/06/08 00:36:25;;;;;;;764.43;725.53;;;15.20;99.90;;;;;;5981677;24;20426;-64
2023/06/08 00:38:53;;;;;;;783.37;742.70;;;15.20;99.90;;;;;;5981595;24;20435;-64
2023/06/08 00:41:20;;;;;;;742.57;707.27;;;15.20;99.90;;;;;;5982838;24;20434;-64
2023/06/08 00:43:47;;;;;;;756.20;719.30;;;15.20;99.90;;;;;;5982512;24;20442;-64
2023/06/08 00:46:14;;;;;;;753.53;716.47;;;15.20;99.90;;;;;;5982733;24;20420;-64
2023/06/08 00:48:42;;;;;;;733.27;697.70;;;15.30;99.90;;;;;;5982274;24;20483;-64
2023/06/08 00:51:10;;;;;;;718.40;683.83;;;15.30;99.90;;;;;;5982832;24;20419;-64
2023/06/08 00:53:38;;;;;;;705.07;671.10;;;15.40;99.90;;;;;;5982247;24;20507;-64
2023/06/08 00:56:07;;;;;;;700.57;667.73;;;15.30;99.90;;;;;;5982981;24;20420;-64
2023/06/08 00:58:37;;;;;;;685.63;653.73;;;15.40;99.90;;;;;;5982591;24;20739;-64
2023/06/08 01:01:04;;;;;;;687.40;655.00;;;15.40;99.90;;;;;;5982578;24;20462;-64
2023/06/08 01:03:35;;;;;;;698.50;665.57;;;15.40;99.90;;;;;;5981744;24;20419;-64
2023/06/08 01:06:02;;;;;;;670.27;639.87;;;15.40;99.90;;;;;;5982915;24;20960;-64
2023/06/08 01:08:43;;;;;;;679.70;648.30;;;15.30;99.90;;;;;;5981603;24;20471;-64
2023/06/08 01:11:19;;;;;;;738.03;702.93;;;15.20;99.90;;;;;;5982330;24;20415;-64
2023/06/08 01:13:53;;;;;;;748.20;710.83;;;15.10;99.90;;;;;;5981381;24;20431;-64
2023/06/08 01:16:22;;;;;;;768.37;729.20;;;15.10;99.90;;;;;;5980980;24;20403;-64
2023/06/08 01:18:51;;;;;;;785.17;743.53;;;14.90;99.90;;;;;;5981742;24;20423;-64
2023/06/08 01:21:28;;;;;;;789.57;747.27;;;14.90;99.90;;;;;;5981718;24;20431;-64
2023/06/08 01:24:12;;;;;;;825.80;778.70;;;14.80;99.90;;;;;;5981455;24;20406;-64
2023/06/08 01:26:41;;;;;;;851.47;802.47;;;14.70;99.90;;;;;;5981836;24;20408;-64
2023/06/08 01:29:09;;;;;;;887.20;833.87;;;14.60;99.90;;;;;;5982544;24;20421;-64
2023/06/08 01:31:36;;;;;;;895.50;842.03;;;14.60;99.90;;;;;;5982694;24;20484;-64
2023/06/08 01:34:04;;;;;;;895.50;841.23;;;14.60;99.90;;;;;;5981865;24;20447;-64
2023/06/08 01:36:52;;;;;;;901.97;847.47;;;14.60;99.90;;;;;;5980750;24;20470;-64
2023/06/08 01:39:31;;;;;;;903.67;849.40;;;14.60;99.90;;;;;;5980648;24;20411;-64
2023/06/08 01:42:01;;;;;;;886.10;835.17;;;14.60;99.90;;;;;;5982101;24;20427;-64
2023/06/08 01:44:30;;;;;;;874.03;824.63;;;14.50;99.90;;;;;;5981845;24;20487;-68
2023/06/08 01:47:00;;;;;;;884.80;833.37;;;14.50;99.90;;;;;;5981271;24;20476;-68
2023/06/08 01:49:29;;;;;;;895.10;842.10;;;14.50;99.90;;;;;;5982181;24;20750;-68
2023/06/08 01:51:58;;;;;;;905.90;851.10;;;14.40;99.90;;;;;;5982869;24;20426;-68
2023/06/08 01:54:26;;;;;;;916.90;861.73;;;14.40;99.90;;;;;;5981676;24;20444;-68
2023/06/08 01:56:53;;;;;;;922.63;866.93;;;14.50;99.90;;;;;;5982248;24;20725;-68
2023/06/08 01:59:19;;;;;;;909.30;856.00;;;14.40;99.90;;;;;;5982288;24;20419;-68
2023/06/08 02:01:46;;;;;;;885.23;834.93;;;14.30;99.90;;;;;;5981906;24;20435;-68
2023/06/08 02:04:13;;;;;;;905.93;853.33;;;14.20;99.90;;;;;;5981106;24;20422;-68
2023/06/08 02:06:40;;;;;;;907.00;853.23;;;14.10;99.90;;;;;;5981894;24;20422;-68
2023/06/08 02:09:06;;;;;;;925.37;866.17;;;14.00;99.90;;;;;;5982206;24;20426;-68
2023/06/08 02:11:35;;;;;;;928.80;869.43;;;14.10;99.90;;;;;;5982514;24;20426;-68
2023/06/08 02:14:01;;;;;;;939.47;878.07;;;14.00;99.90;;;;;;5981462;24;20454;-68
2023/06/08 02:16:28;;;;;;;942.93;879.90;;;13.90;99.90;;;;;;5981426;24;20420;-68
2023/06/08 02:18:55;;;;;;;937.97;875.70;;;13.90;99.90;;;;;;5981337;24;20427;-68
2023/06/08 02:21:22;;;;;;;944.33;880.63;;;13.80;99.90;;;;;;5981146;24;20419;-68
2023/06/08 02:23:49;;;;;;;942.53;879.53;;;13.80;99.90;;;;;;5981013;24;20889;-69
2023/06/08 02:26:16;;;;;;;945.93;882.23;;;13.70;99.90;;;;;;5982140;24;20426;-68
2023/06/08 02:28:44;;;;;;;953.20;887.93;;;13.70;99.90;;;;;;5981751;24;20690;-69
2023/06/08 02:31:12;;;;;;;949.53;881.53;;;13.60;99.90;;;;;;5982269;24;20419;-68
2023/06/08 02:33:39;;;;;;;947.63;877.03;;;13.60;99.90;;;;;;5980392;24;20439;-68
2023/06/08 02:36:09;;;;;;;938.63;867.60;;;13.70;99.90;;;;;;5981519;24;20419;-68
2023/06/08 02:38:36;;;;;;;946.50;873.83;;;13.70;99.90;;;;;;5980852;24;20475;-68
2023/06/08 02:41:03;;;;;;;939.53;868.43;;;13.70;99.90;;;;;;5981746;24;20507;-68
2023/06/08 02:43:29;;;;;;;935.70;867.40;;;13.80;99.90;;;;;;5981087;24;20880;-68
2023/06/08 02:45:57;;;;;;;938.33;871.80;;;13.70;99.90;;;;;;5982257;24;20744;-68
2023/06/08 02:48:24;;;;;;;919.37;853.50;;;13.70;99.90;;;;;;5980255;24;20746;-68
2023/06/08 02:50:51;;;;;;;923.80;858.00;;;13.60;99.90;;;;;;5981937;24;20467;-68
2023/06/08 02:53:18;;;;;;;930.77;863.83;;;13.60;99.90;;;;;;5981514;24;20446;-68
2023/06/08 02:55:45;;;;;;;920.80;854.40;;;13.70;99.90;;;;;;5982133;24;20423;-68
2023/06/08 02:58:14;;;;;;;923.10;856.10;;;13.60;99.90;;;;;;5982086;24;20419;-68
2023/06/08 03:00:40;;;;;;;922.10;852.00;;;13.60;99.90;;;;;;5982231;24;20926;-68
2023/06/08 03:03:08;;;;;;;911.63;840.67;;;13.60;99.90;;;;;;5981580;24;20423;-68
2023/06/08 03:05:39;;;;;;;908.27;838.33;;;13.70;99.90;;;;;;5982169;24;20424;-68
2023/06/08 03:08:07;;;;;;;917.00;848.87;;;13.70;99.90;;;;;;5981786;24;20411;-68
2023/06/08 03:10:33;;;;;;;921.70;854.97;;;13.70;99.90;;;;;;5981794;24;20419;-68
2023/06/08 03:13:00;;;;;;;919.83;854.20;;;13.60;99.90;;;;;;5980434;24;20446;-68
2023/06/08 03:15:29;;;;;;;925.70;857.60;;;13.60;99.90;;;;;;5981616;24;20420;-65
2023/06/08 03:17:57;;;;;;;917.87;847.33;;;13.50;99.90;;;;;;5981944;24;20419;-65
2023/06/08 03:20:25;;;;;;;915.70;845.20;;;13.60;99.90;;;;;;5983157;24;20482;-65
2023/06/08 03:22:52;;;;;;;925.07;852.83;;;13.50;99.90;;;;;;5981161;24;20423;-65
2023/06/08 03:25:21;;;;;;;920.53;848.50;;;13.50;99.90;;;;;;5981789;24;20778;-65
2023/06/08 03:27:48;;;;;;;921.23;848.87;;;13.60;99.90;;;;;;5981021;24;20419;-65
2023/06/08 03:30:14;;;;;;;916.47;841.47;;;13.50;99.90;;;;;;5982692;24;20454;-65
2023/06/08 03:32:48;;;;;;;907.57;831.77;;;13.50;99.90;;;;;;5982347;24;20453;-65
2023/06/08 03:35:16;;;;;;;894.37;818.90;;;13.50;99.90;;;;;;5983526;24;20404;-65
2023/06/08 03:37:44;;;;;;;888.20;813.90;;;13.40;99.90;;;;;;5983414;24;20504;-65
2023/06/08 03:40:11;;;;;;;884.33;809.73;;;13.40;99.90;;;;;;5983079;24;20831;-65
2023/06/08 03:42:38;;;;;;;881.67;807.97;;;13.30;99.90;;;;;;5982472;24;20427;-65
2023/06/08 03:45:06;;;;;;;888.53;814.80;;;13.30;99.90;;;;;;5982760;24;20874;-65
2023/06/08 03:47:33;;;;;;;879.87;807.13;;;13.20;99.90;;;;;;5982671;24;20420;-65
2023/06/08 03:50:00;;;;;;;881.60;809.40;;;13.20;99.90;;;;;;5982910;24;20927;-65
2023/06/08 03:52:26;;;;;;;876.80;803.97;;;13.20;99.90;;;;;;5982752;24;20424;-65
2023/06/08 03:54:55;;;;;;;871.13;801.67;;;13.20;99.90;;;;;;5983097;24;20449;-65
2023/06/08 03:57:21;;;;;;;880.93;809.33;;;13.20;99.90;;;;;;5983104;24;20423;-65
2023/06/08 03:59:48;;;;;;;878.43;804.40;;;13.30;99.90;;;;;;5983332;24;20420;-65
2023/06/08 04:02:15;;;;;;;875.40;804.23;;;13.40;99.90;;;;;;5982214;24;20423;-65
2023/06/08 04:04:44;;;;;;;870.80;801.00;;;13.50;99.90;;;;;;5983139;24;20492;-65
2023/06/08 04:07:11;;;;;;;884.00;815.90;;;13.50;99.90;;;;;;5982858;24;20420;-65
2023/06/08 04:09:38;;;;;;;889.70;820.37;;;13.50;99.90;;;;;;5983246;24;20419;-65
2023/06/08 04:12:08;;;;;;;873.90;804.33;;;13.50;99.90;;;;;;5982640;24;20427;-65
2023/06/08 04:14:35;;;;;;;875.77;806.60;;;13.50;99.90;;;;;;5982798;24;20451;-65
2023/06/08 04:17:02;;;;;;;877.50;807.67;;;13.40;99.90;;;;;;5982827;24;20424;-65
2023/06/08 04:19:28;;;;;;;875.10;805.40;;;13.50;99.90;;;;;;5983064;24;20426;-65
2023/06/08 04:21:56;;;;;;;865.87;796.07;;;13.50;99.90;;;;;;5982854;24;20423;-65
2023/06/08 04:24:23;;;;;;;874.60;805.90;;;13.60;99.90;;;;;;5982385;24;20790;-65
2023/06/08 04:26:50;;;;;;;871.17;801.60;;;13.60;99.90;;;;;;5982813;24;20426;-66
2023/06/08 04:29:18;;;;;;;869.60;800.87;;;13.60;99.90;;;;;;5982287;24;20427;-65
2023/06/08 04:31:45;;;;;;;867.63;798.93;;;13.70;99.90;;;;;;5982623;24;20419;-65
2023/06/08 04:34:12;;;;;;;868.87;800.73;;;13.80;99.90;;;;;;5981759;24;20977;-65
2023/06/08 04:36:42;;;;;;;872.73;804.13;;;13.90;99.90;;;;;;5983014;24;20743;-65
2023/06/08 04:39:09;;;;;;;875.23;807.87;;;14.00;99.90;;;;;;5981387;24;20476;-65
2023/06/08 04:41:36;;;;;;;882.83;815.27;;;14.10;99.90;;;;;;5982840;24;20518;-65
2023/06/08 04:44:03;;;;;;;870.43;807.50;;;14.10;99.90;;;;;;5981994;24;20901;-65
2023/06/08 04:46:37;;;;;;;872.43;810.13;;;14.30;99.90;;;;;;5982972;24;20606;-65
2023/06/08 04:49:04;;;;;;;862.27;804.27;;;14.40;99.90;;;;;;5991773;24;20487;-65
2023/06/08 04:51:31;;;;;;;864.80;806.30;;;14.50;99.90;;;;;;5982657;24;20912;-65
2023/06/08 04:53:59;;;;;;;857.40;802.70;;;14.60;99.90;;;;;;5982287;24;20450;-65
2023/06/08 04:56:29;;;;;;;837.50;788.23;;;14.70;99.90;;;;;;5982791;24;20442;-65
2023/06/08 04:58:56;;;;;;;833.47;784.57;;;14.90;99.90;;;;;;5982211;24;20479;-64
2023/06/08 05:01:23;;;;;;;812.20;764.67;;;14.90;99.90;;;;;;5982267;24;20419;-65
2023/06/08 05:03:52;;;;;;;814.60;766.70;;;15.00;99.90;;;;;;5980439;24;20415;-65
2023/06/08 05:06:19;;;;;;;773.63;731.50;;;15.10;99.90;;;;;;5982301;24;20953;-65
2023/06/08 05:08:46;;;;;;;747.13;709.10;;;15.20;99.90;;;;;;5982411;24;20419;-65
2023/06/08 05:11:13;;;;;;;732.47;694.67;;;15.30;99.90;;;;;;5982363;24;20419;-65
2023/06/08 05:13:40;;;;;;;669.13;637.83;;;15.30;99.90;;;;;;5981785;24;20439;-65
2023/06/08 05:16:06;;;;;;;630.27;600.63;;;15.40;99.90;;;;;;5982565;24;20419;-65
2023/06/08 05:18:33;;;;;;;385.47;369.07;;;15.60;99.90;;;;;;5981743;24;20429;-65
2023/06/08 05:21:01;;;;;;;250.20;239.00;;;15.80;99.90;;;;;;5982668;24;20430;-65
2023/06/08 05:23:28;;;;;;;145.93;139.37;;;16.10;99.90;;;;;;5981844;24;20415;-66
2023/06/08 05:25:55;;;;;;;137.40;130.23;;;16.40;99.90;;;;;;5982590;24;20427;-66
2023/06/08 05:28:22;;;;;;;41.07;38.07;;;16.70;99.90;;;;;;5982369;24;20430;-66
2023/06/08 05:30:48;;;;;;;40.20;37.13;;;17.10;99.90;;;;;;5982321;24;20760;-66
2023/06/08 05:33:15;;;;;;;27.80;22.73;;;17.30;99.90;;;;;;5981250;24;20732;-66
2023/06/08 05:35:42;;;;;;;21.33;19.30;;;17.50;99.90;;;;;;5982441;24;20419;-66
2023/06/08 05:38:10;;;;;;;15.57;13.57;;;17.70;99.90;;;;;;5980889;24;20423;-66
2023/06/08 05:40:37;;;;;;;20.13;12.70;;;17.80;99.90;;;;;;5982042;24;20420;-66
2023/06/08 05:43:04;;;;;;;22.00;13.57;;;18.20;99.90;;;;;;5981500;24;20431;-65
2023/06/08 05:45:31;;;;;;;17.70;11.57;;;18.50;99.90;;;;;;5982230;24;20420;-65
2023/06/08 05:47:57;;;;;;;19.50;12.13;;;18.70;99.90;;;;;;5981917;24;20419;-65
2023/06/08 05:50:24;;;;;;;17.63;11.90;;;18.80;99.90;;;;;;5981879;24;20420;-65
2023/06/08 05:52:51;;;;;;;20.73;11.00;;;19.10;99.90;;;;;;5981845;24;20754;-65
2023/06/08 05:55:19;;;;;;;17.20;11.77;;;19.10;99.90;;;;;;5982241;24;20470;-68
2023/06/08 05:57:46;;;;;;;19.53;13.10;;;18.80;99.90;;;;;;5980578;24;20426;-68
2023/06/08 06:00:15;;;;;;;17.60;10.40;;;19.10;99.90;;;;;;5982084;24;20419;-68
2023/06/08 06:02:42;;;;;;;20.10;11.43;;;19.20;99.90;;;;;;5981949;24;20419;-68
2023/06/08 06:05:10;;;;;;;20.87;12.27;;;19.50;99.90;;;;;;5981991;24;20471;-68
2023/06/08 06:07:36;;;;;;;16.60;10.17;;;19.50;99.90;;;;;;5980720;24;20427;-68
2023/06/08 06:10:03;;;;;;;13.77;9.97;;;19.60;99.90;;;;;;5982221;24;20423;-68
2023/06/08 06:12:31;;;;;;;18.30;11.33;;;19.40;99.90;;;;;;5981535;24;20429;-68
2023/06/08 06:14:58;;;;;;;20.97;12.23;;;19.70;99.90;;;;;;5981834;24;20449;-68
2023/06/08 06:17:25;;;;;;;23.73;12.20;;;19.90;99.90;;;;;;5981854;24;20426;-68
2023/06/08 06:19:52;;;;;;;22.40;11.20;;;19.90;98.90;;;;;;5982158;24;20912;-68
2023/06/08 06:22:19;;;;;;;19.33;10.50;;;20.20;96.90;;;;;;5981159;24;20430;-68
2023/06/08 06:24:45;;;;;;;15.97;10.93;;;20.20;96.90;;;;;;5981770;24;20416;-68
2023/06/08 06:27:12;;;;;;;14.07;9.63;;;20.10;97.70;;;;;;5982005;24;20471;-69
2023/06/08 06:29:41;;;;;;;19.20;10.77;;;20.00;95.10;;;;;;5981909;24;20734;-69
2023/06/08 06:32:08;;;;;;;18.03;10.43;;;20.20;96.40;;;;;;5982370;24;20420;-66
2023/06/08 06:34:35;;;;;;;14.70;10.20;;;20.40;97.00;;;;;;5981923;24;20443;-65
2023/06/08 06:37:02;;;;;;;15.70;10.40;;;20.50;95.70;;;;;;5981878;24;20480;-65
2023/06/08 06:39:29;;;;;;;18.70;11.20;;;20.50;95.30;;;;;;5980459;24;20903;-65
2023/06/08 06:41:56;;;;;;;16.60;11.47;;;20.20;95.20;;;;;;5981527;24;20193;-65
2023/06/08 06:44:23;;;;;;;20.97;9.83;;;20.40;95.30;;;;;;5981315;24;20905;-65
2023/06/08 06:46:51;;;;;;;15.90;9.50;;;20.40;94.20;;;;;;5982012;24;20419;-65
2023/06/08 06:49:18;;;;;;;15.80;9.27;;;20.20;93.50;;;;;;5981995;24;20736;-65
2023/06/08 06:51:45;;;;;;;17.03;9.33;;;20.30;93.90;;;;;;5982433;24;20511;-65
2023/06/08 06:54:11;;;;;;;12.93;9.37;;;20.40;95.20;;;;;;5983350;24;20439;-65
2023/06/08 06:56:38;;;;;;;18.03;10.87;;;20.30;93.60;;;;;;5981028;24;20442;-65
2023/06/08 06:59:05;;;;;;;18.97;10.63;;;20.40;93.80;;;;;;5982611;24;20745;-65
2023/06/08 07:01:35;;;;;;;14.07;10.17;;;20.70;95.40;;;;;;5982401;24;20508;-65
2023/06/08 07:04:04;;;;;;;16.57;10.30;;;20.90;93.20;;;;;;5982150;24;20594;-65
2023/06/08 07:06:31;;;;;;;17.33;9.40;;;21.10;92.10;;;;;;5982821;24;20419;-64
2023/06/08 07:08:57;;;;;;;17.80;9.97;;;21.30;93.40;;;;;;5982340;24;20422;-64
2023/06/08 07:11:24;;;;;;;14.53;10.30;;;21.60;91.20;;;;;;5982299;24;20416;-65
2023/06/08 07:13:51;;;;;;;15.10;9.20;;;21.60;90.00;;;;;;5982566;24;20414;-64
2023/06/08 07:16:21;;;;;;;13.97;9.63;;;21.50;89.00;;;;;;5983841;24;20419;-65
2023/06/08 07:18:48;;;;;;;13.40;9.07;;;21.70;90.80;;;;;;5983235;24;20420;-65
2023/06/08 07:21:19;;;;;;;20.90;11.40;;;21.90;87.80;;;;;;5983824;24;20420;-65
2023/06/08 07:23:47;;;;;;;15.87;9.37;;;21.80;88.80;;;;;;5982957;24;20503;-63
2023/06/08 07:26:14;;;;;;;17.13;9.50;;;22.10;88.00;;;;;;5983689;24;20426;-63
2023/06/08 07:28:41;;;;;;;11.90;7.70;;;22.50;87.60;;;;;;5983134;24;20415;-63
2023/06/08 07:31:08;;;;;;;16.93;9.17;;;22.60;84.50;;;;;;5983672;24;20423;-63
2023/06/08 07:33:35;;;;;;;13.23;9.63;;;22.50;87.20;;;;;;5982804;24;20426;-64
2023/06/08 07:36:02;;;;;;;20.63;10.13;;;22.30;82.20;;;;;;5983378;24;20450;-64
2023/06/08 07:38:30;;;;;;;17.07;9.97;;;22.10;80.10;;;;;;5981406;24;20932;-64
2023/06/08 07:40:57;;;;;;;16.63;8.97;;;21.90;82.30;;;;;;5983355;24;20419;-64
2023/06/08 07:43:27;;;;;;;15.30;8.83;;;22.20;83.20;;;;;;5982651;24;20423;-64
2023/06/08 07:45:55;;;;;;;10.07;6.90;;;22.50;82.10;;;;;;5983648;24;20433;-65
2023/06/08 07:48:22;;;;;;;12.90;7.30;;;22.30;79.00;;;;;;5983383;24;20423;-64
2023/06/08 07:50:49;;;;;;;16.13;8.43;;;22.40;78.90;;;;;;5983175;24;20502;-64
2023/06/08 07:53:15;;;;;;;13.37;8.10;;;22.50;78.30;;;;;;5982984;24;20447;-64
2023/06/08 07:55:44;;;;;;;15.30;9.10;;;22.60;74.50;;;;;;5983290;24;20500;-64
2023/06/08 07:58:14;;;;;;;14.57;7.50;;;22.90;82.70;;;;;;5982835;24;20428;-64
2023/06/08 08:00:41;;;;;;;13.20;8.03;;;23.00;80.90;;;;;;5983342;24;20788;-64
2023/06/08 08:03:07;;;;;;;12.80;8.73;;;23.30;81.20;;;;;;5982348;24;20431;-64
2023/06/08 08:05:34;;;;;;;11.03;8.80;;;23.20;78.70;;;;;;5983362;24;20415;-67
2023/06/08 08:08:01;;;;;;;12.43;8.30;;;23.30;79.30;;;;;;5983017;24;20419;-64
2023/06/08 08:10:28;;;;;;;11.50;7.63;;;23.40;71.80;;;;;;5982955;24;20427;-64
2023/06/08 08:12:56;;;;;;;14.37;7.37;;;23.80;75.00;;;;;;5982656;24;20442;-64
2023/06/08 08:15:23;;;;;;;15.83;10.03;;;24.00;73.70;;;;;;5983137;24;20440;-64
2023/06/08 08:17:50;;;;;;;14.50;8.60;;;24.30;71.40;;;;;;5982864;24;20420;-64
2023/06/08 08:20:17;;;;;;;18.10;8.50;;;25.10;66.50;;;;;;5983179;24;20420;-64
2023/06/08 08:22:44;;;;;;;15.37;9.07;;;24.90;63.30;;;;;;5982273;24;20941;-64
2023/06/08 08:25:11;;;;;;;20.10;9.70;;;24.80;64.10;;;;;;5983035;24;20503;-64
2023/06/08 08:27:38;;;;;;;11.97;7.73;;;25.00;61.10;;;;;;5982626;24;20426;-64
2023/06/08 08:30:07;;;;;;;15.73;8.50;;;25.80;58.50;;;;;;5983127;24;20427;-64
2023/06/08 08:32:34;;;;;;;17.27;8.77;;;26.00;58.60;;;;;;5982653;24;20424;-64
2023/06/08 08:35:01;;;;;;;16.43;8.10;;;25.80;58.50;;;;;;5982927;24;20448;-64
2023/06/08 08:37:28;;;;;;;13.63;8.23;;;26.10;58.60;;;;;;5982954;24;20431;-64
2023/06/08 08:39:55;;;;;;;12.07;8.20;;;25.30;52.40;;;;;;5983221;24;20744;-64
2023/06/08 08:42:25;;;;;;;12.93;9.00;;;25.80;55.50;;;;;;5982274;24;20478;-64
2023/06/08 08:44:54;;;;;;;13.70;8.43;;;25.80;52.70;;;;;;5982932;24;20909;-64
2023/06/08 08:47:24;;;;;;;16.20;8.77;;;25.60;58.30;;;;;;5982857;24;20476;-64
2023/06/08 08:49:57;;;;;;;14.03;10.00;;;25.80;54.00;;;;;;5982941;24;20427;-64
2023/06/08 08:52:29;;;;;;;19.67;9.13;;;25.80;56.50;;;;;;5982703;24;20703;-64
2023/06/08 08:54:57;;;;;;;12.13;8.90;;;25.90;52.30;;;;;;5982915;24;20436;-64
2023/06/08 08:57:27;;;;;;;19.73;8.93;;;26.00;57.10;;;;;;5982737;24;20729;-64
2023/06/08 08:59:55;;;;;;;14.00;8.57;;;26.50;52.80;;;;;;5982912;24;20404;-64
2023/06/08 09:02:23;;;;;;;14.70;8.60;;;26.40;50.00;;;;;;5982342;24;20422;-64
2023/06/08 09:04:50;;;;;;;14.37;9.30;;;26.30;45.80;;;;;;5982911;24;20742;-64
2023/06/08 09:07:20;;;;;;;12.50;8.90;;;26.00;46.70;;;;;;5982333;24;20419;-64
2023/06/08 09:10:19;;;;;;;13.33;8.20;;;25.60;49.40;;;;;;5982817;24;20431;-64
2023/06/08 09:12:47;;;;;;;13.40;8.77;;;26.00;49.70;;;;;;5991205;24;20421;-64
2023/06/08 09:15:17;;;;;;;15.00;9.13;;;25.80;51.50;;;;;;5982705;24;20440;-64
2023/06/08 09:17:45;;;;;;;13.73;8.33;;;25.90;47.70;;;;;;5982507;24;20749;-64
2023/06/08 09:20:12;;;;;;;15.67;8.73;;;26.00;52.90;;;;;;5982693;24;20421;-64
2023/06/08 09:22:39;;;;;;;11.53;9.10;;;26.30;47.00;;;;;;5982134;24;20736;-64
2023/06/08 09:25:07;;;;;;;13.00;8.43;;;26.10;49.80;;;;;;5982179;24;20921;-64
2023/06/08 09:27:35;;;;;;;15.43;9.47;;;26.30;55.60;;;;;;5982427;24;20421;-64
2023/06/08 09:30:02;;;;;;;12.40;8.40;;;27.00;46.10;;;;;;5982725;24;20494;-64
2023/06/08 09:32:32;;;;;;;12.93;8.23;;;27.10;46.00;;;;;;5982251;24;20496;-64
2023/06/08 09:35:02;;;;;;;13.40;8.27;;;26.80;48.80;;;;;;5982503;24;20441;-64
2023/06/08 09:37:30;;;;;;;11.00;7.30;;;27.00;45.00;;;;;;5982414;24;20422;-64
2023/06/08 09:39:59;;;;;;;14.10;8.17;;;26.80;44.20;;;;;;5991415;24;20437;-64
2023/06/08 09:42:41;;;;;;;13.30;8.40;;;26.60;43.70;;;;;;5981713;24;20839;-64
2023/06/08 09:45:10;;;;;;;15.50;9.80;;;27.20;47.30;;;;;;5982545;24;20956;-64
2023/06/08 09:47:37;;;;;;;12.37;8.30;;;28.10;38.60;;;;;;5982247;24;20475;-64
2023/06/08 09:50:10;;;;;;;14.07;8.67;;;27.40;41.50;;;;;;5982376;24;20427;-64
2023/06/08 09:52:41;;;;;;;17.57;10.40;;;27.20;41.50;;;;;;5981909;24;20411;-64
2023/06/08 09:55:09;;;;;;;14.40;10.10;;;27.50;37.70;;;;;;5982344;24;20410;-64
2023/06/08 09:57:37;;;;;;;13.33;8.03;;;27.60;40.00;;;;;;5982145;24;20419;-64
2023/06/08 10:00:09;;;;;;;11.90;8.67;;;28.00;42.10;;;;;;5982426;24;20423;-64
2023/06/08 10:02:42;;;;;;;13.90;9.67;;;27.70;34.60;;;;;;5981835;24;20404;-64
2023/06/08 10:05:15;;;;;;;13.77;8.03;;;28.00;37.30;;;;;;5982221;24;20400;-64
2023/06/08 10:07:45;;;;;;;11.10;8.70;;;27.60;36.90;;;;;;5981855;24;20884;-64
2023/06/08 10:10:16;;;;;;;13.53;8.50;;;28.60;33.10;;;;;;5982315;24;20530;-64
2023/06/08 10:12:43;;;;;;;16.67;10.57;;;28.90;33.50;;;;;;5981801;24;20404;-64
2023/06/08 10:15:11;;;;;;;15.73;9.17;;;28.10;34.80;;;;;;5981921;24;20443;-64
2023/06/08 10:17:39;;;;;;;12.20;8.70;;;27.90;37.80;;;;;;5981817;24;20419;-64
2023/06/08 10:20:07;;;;;;;14.00;8.50;;;28.40;35.20;;;;;;5982385;24;20913;-64
2023/06/08 10:22:39;;;;;;;14.17;10.00;;;28.00;32.80;;;;;;5981722;24;20807;-64
2023/06/08 10:25:08;;;;;;;13.87;8.63;;;28.00;32.80;;;;;;5982372;24;20442;-64
2023/06/08 10:27:35;;;;;;;11.40;7.97;;;29.00;33.50;;;;;;5982902;24;20424;-64
2023/06/08 10:30:04;;;;;;;12.93;8.33;;;28.00;32.80;;;;;;5984207;24;20458;-64
2023/06/08 10:32:32;;;;;;;11.73;8.77;;;27.70;33.00;;;;;;5983600;24;20792;-64
2023/06/08 10:35:00;;;;;;;12.27;8.90;;;27.80;32.70;;;;;;5983978;24;20419;-64
2023/06/08 10:37:28;;;;;;;14.90;9.27;;;27.80;32.70;;;;;;5983552;24;20476;-64
2023/06/08 10:39:58;;;;;;;14.10;9.07;;;27.20;38.10;;;;;;5983672;24;20423;-64
2023/06/08 10:42:25;;;;;;;16.20;9.53;;;27.50;36.80;;;;;;5983136;24;20766;-65
2023/06/08 10:44:57;;;;;;;14.17;8.90;;;26.90;38.80;;;;;;5984116;24;20419;-64
2023/06/08 10:47:24;;;;;;;12.80;9.60;;;27.50;41.70;;;;;;5983593;24;20420;-64
2023/06/08 10:49:58;;;;;;;13.83;8.20;;;27.30;38.60;;;;;;5983676;24;20433;-64
2023/06/08 10:52:26;;;;;;;13.37;8.60;;;27.30;38.40;;;;;;5983096;24;20403;-64
2023/06/08 10:54:57;;;;;;;10.27;7.50;;;27.40;39.80;;;;;;5983540;24;20916;-64
2023/06/08 10:57:36;;;;;;;13.17;9.30;;;27.50;37.30;;;;;;5983411;24;20439;-64
2023/06/08 11:00:42;;;;;;;11.10;7.50;;;27.60;38.40;;;;;;5983903;24;20473;-64
2023/06/08 11:03:13;;;;;;;15.93;8.70;;;27.60;36.10;;;;;;5983277;24;20407;-64
2023/06/08 11:05:43;;;;;;;15.47;9.17;;;28.00;37.00;;;;;;5983623;24;20407;-65
2023/06/08 11:08:10;;;;;;;10.33;7.43;;;28.00;32.80;;;;;;5983649;24;20420;-64
2023/06/08 11:10:40;;;;;;;12.83;7.50;;;28.30;33.00;;;;;;5983975;24;20446;-64
2023/06/08 11:13:08;;;;;;;10.03;7.27;;;27.50;32.40;;;;;;5983398;24;20423;-64
2023/06/08 11:15:37;;;;;;;13.10;7.97;;;28.00;33.70;;;;;;5983678;24;20446;-64
2023/06/08 11:18:05;;;;;;;12.83;8.40;;;28.10;32.90;;;;;;5983857;24;20420;-64
2023/06/08 11:20:33;;;;;;;12.20;8.30;;;28.50;35.30;;;;;;5983065;24;20434;-64
2023/06/08 11:23:02;;;;;;;12.33;7.93;;;29.50;31.00;;;;;;5983215;24;20423;-64
2023/06/08 11:25:30;;;;;;;10.87;7.10;;;29.70;25.90;;;;;;5983688;24;20417;-64
2023/06/08 11:27:58;;;;;;;12.93;7.93;;;30.30;26.20;;;;;;5981860;24;20494;-64
2023/06/08 11:30:27;;;;;;;10.80;7.73;;;30.20;24.60;;;;;;5982103;24;20420;-64
2023/06/08 11:32:55;;;;;;;8.57;6.20;;;30.70;18.90;;;;;;5982639;24;20454;-65
2023/06/08 11:35:22;;;;;;;9.10;6.30;;;29.90;21.50;;;;;;5983587;24;20810;-64
2023/06/08 11:37:50;;;;;;;10.10;6.30;;;29.10;20.30;;;;;;5982351;24;20479;-64
2023/06/08 11:40:17;;;;;;;8.73;6.50;;;29.10;23.90;;;;;;5982996;24;20426;-64
2023/06/08 11:42:45;;;;;;;10.17;8.03;;;28.60;25.00;;;;;;5982395;24;20437;-64
2023/06/08 11:45:14;;;;;;;10.57;7.20;;;28.40;25.20;;;;;;5983507;24;20416;-64
2023/06/08 11:47:42;;;;;;;11.03;7.43;;;29.30;20.10;;;;;;5983104;24;20424;-64
2023/06/08 11:50:13;;;;;;;9.90;7.00;;;31.20;19.20;;;;;;5983013;24;20419;-64
2023/06/08 11:52:41;;;;;;;13.57;7.70;;;30.60;16.30;;;;;;5982595;24;20394;-65
2023/06/08 11:55:11;;;;;;;11.07;7.83;;;29.30;20.80;;;;;;5983327;24;20419;-65
2023/06/08 11:57:40;;;;;;;13.33;7.80;;;28.60;24.50;;;;;;5983396;24;20415;-64
2023/06/08 12:00:09;;;;;;;11.50;7.90;;;27.60;27.70;;;;;;5983476;24;20394;-64
2023/06/08 12:02:38;;;;;;;13.90;8.90;;;27.00;29.10;;;;;;5983013;24;20458;-64
2023/06/08 12:05:06;;;;;;;12.43;8.60;;;27.70;30.50;;;;;;5983331;24;20425;-64
2023/06/08 12:07:33;;;;;;;13.00;9.70;;;28.20;26.00;;;;;;5982925;24;20732;-64
2023/06/08 12:10:00;;;;;;;10.17;6.37;;;29.30;23.30;;;;;;5983372;24;20423;-64
2023/06/08 12:12:31;;;;;;;12.57;9.00;;;29.20;24.20;;;;;;5982917;24;20442;-64
2023/06/08 12:14:58;;;;;;;13.33;8.73;;;29.10;25.50;;;;;;5983264;24;20415;-64
2023/06/08 12:17:29;;;;;;;15.40;8.53;;;27.70;25.50;;;;;;5983088;24;20765;-65
2023/06/08 12:19:58;;;;;;;11.30;7.00;;;27.30;29.10;;;;;;5983196;24;20411;-64
2023/06/08 12:22:24;;;;;;;12.10;7.80;;;26.90;30.50;;;;;;5982381;24;20450;-64
2023/06/08 12:24:51;;;;;;;11.27;7.97;;;27.60;28.40;;;;;;5983287;24;20528;-64
2023/06/08 12:27:18;;;;;;;14.53;7.97;;;28.40;28.80;;;;;;5982684;24;20905;-65
2023/06/08 12:29:47;;;;;;;11.70;8.13;;;29.20;24.80;;;;;;5982861;24;20419;-65